createdAt,value
2018-02-23T00:01:07.154Z,93464.66
2018-02-23T00:03:33.715Z,93455.73
2018-02-23T00:06:00.302Z,93443.88
2018-02-23T00:08:26.896Z,93448.04
2018-02-23T00:10:53.470Z,93448.13
2018-02-23T00:13:20.817Z,93450.20
2018-02-23T00:15:47.414Z,93451.16
2018-02-23T00:18:14.024Z,93446.14
2018-02-23T00:20:40.815Z,93446.60
2018-02-23T00:23:07.378Z,93440.46
2018-02-23T00:25:33.958Z,93442.19
2018-02-23T00:28:01.275Z,93450.87
2018-02-23T00:30:27.848Z,93450.39
2018-02-23T00:32:55.165Z,93440.36
2018-02-23T00:35:22.495Z,93441.12
2018-02-23T00:37:49.050Z,93456.58
2018-02-23T00:40:16.422Z,93455.28
2018-02-23T00:42:42.974Z,93455.94
2018-02-23T00:45:09.574Z,93451.50
2018-02-23T00:47:36.159Z,93452.16
2018-02-23T00:50:03.466Z,93446.70
2018-02-23T00:52:30.076Z,93447.92
2018-02-23T00:54:57.409Z,93452.67
2018-02-23T00:57:23.975Z,93449.75
2018-02-23T00:59:50.562Z,93448.23
2018-02-23T01:02:17.158Z,93445.96
2018-02-23T01:04:43.722Z,93450.29
2018-02-23T01:07:10.438Z,93454.20
2018-02-23T01:09:37.790Z,93453.84
2018-02-23T01:12:04.344Z,93448.11
2018-02-23T01:14:30.945Z,93443.47
2018-02-23T01:16:57.490Z,93442.88
2018-02-23T01:19:24.114Z,93437.80
2018-02-23T01:21:50.707Z,93427.97
2018-02-23T01:24:18.007Z,93433.62
2018-02-23T01:26:44.585Z,93420.53
2018-02-23T01:29:12.499Z,93426.85
2018-02-23T01:31:39.062Z,93417.70
2018-02-23T01:34:05.610Z,93425.57
2018-02-23T01:36:32.530Z,93424.25
2018-02-23T01:38:59.054Z,93428.09
2018-02-23T01:41:25.731Z,93421.53
2018-02-23T01:43:53.074Z,93417.82
2018-02-23T01:46:19.635Z,93407.25
2018-02-23T01:48:46.254Z,93416.80
2018-02-23T01:51:12.836Z,93403.89
2018-02-23T01:53:39.466Z,93409.27
2018-02-23T01:56:06.791Z,93411.77
2018-02-23T01:58:33.345Z,93405.11
2018-02-23T02:01:00.655Z,93408.51
2018-02-23T02:03:27.970Z,93406.67
2018-02-23T02:05:54.523Z,93413.33
2018-02-23T02:08:22.181Z,93401.58
2018-02-23T02:10:48.752Z,93397.08
2018-02-23T02:13:15.320Z,93396.69
2018-02-23T02:15:42.776Z,93401.80
2018-02-23T02:18:09.361Z,93391.84
2018-02-23T02:20:36.202Z,93382.84
2018-02-23T02:23:02.772Z,93400.34
2018-02-23T02:25:29.334Z,93389.02
2018-02-23T02:27:56.655Z,93389.42
2018-02-23T02:30:23.221Z,93388.13
2018-02-23T02:32:50.522Z,93382.25
2018-02-23T02:35:17.115Z,93382.10
2018-02-23T02:37:44.474Z,93387.67
2018-02-23T02:40:11.833Z,93374.31
2018-02-23T02:42:38.425Z,93375.19
2018-02-23T02:45:05.219Z,93374.88
2018-02-23T02:47:31.774Z,93375.45
2018-02-23T02:49:58.351Z,93371.72
2018-02-23T02:52:24.915Z,93378.95
2018-02-23T02:54:51.474Z,93363.52
2018-02-23T02:57:18.068Z,93373.78
2018-02-23T02:59:44.658Z,93371.48
2018-02-23T03:02:11.238Z,93367.30
2018-02-23T03:04:38.570Z,93360.93
2018-02-23T03:07:05.387Z,93371.33
2018-02-23T03:09:31.952Z,93367.13
2018-02-23T03:11:58.519Z,93357.52
2018-02-23T03:14:25.844Z,93357.19
2018-02-23T03:16:53.159Z,93392.58
2018-02-23T03:19:20.115Z,93361.20
2018-02-23T03:21:46.654Z,93367.39
2018-02-23T03:24:13.209Z,93371.63
2018-02-23T03:26:39.799Z,93375.27
2018-02-23T03:29:06.356Z,93369.06
2018-02-23T03:31:32.948Z,93370.64
2018-02-23T03:34:00.258Z,93381.19
2018-02-23T03:36:27.181Z,93373.92
2018-02-23T03:38:53.872Z,93363.48
2018-02-23T03:41:20.486Z,93366.39
2018-02-23T03:43:47.083Z,93377.86
2018-02-23T03:46:13.647Z,93381.42
2018-02-23T03:48:40.250Z,93370.95
2018-02-23T03:51:06.809Z,93369.70
2018-02-23T03:53:33.561Z,93376.28
2018-02-23T03:56:00.155Z,93371.41
2018-02-23T03:58:26.752Z,93363.01
2018-02-23T04:00:53.317Z,93363.66
2018-02-23T04:03:19.897Z,93362.52
2018-02-23T04:05:46.469Z,93359.33
2018-02-23T04:08:13.075Z,93353.50
2018-02-23T04:10:40.029Z,93357.96
2018-02-23T04:13:06.662Z,93356.51
2018-02-23T04:15:33.231Z,93362.28
2018-02-23T04:18:00.551Z,93361.03
2018-02-23T04:20:27.166Z,93365.75
2018-02-23T04:22:53.743Z,93354.20
2018-02-23T04:25:21.102Z,93354.61
2018-02-23T04:27:48.446Z,93362.23
2018-02-23T04:30:15.018Z,93359.34
2018-02-23T04:32:42.659Z,93355.27
2018-02-23T04:35:09.262Z,93351.99
2018-02-23T04:37:35.829Z,93352.36
2018-02-23T04:40:02.475Z,93344.21
2018-02-23T04:42:29.770Z,93350.08
2018-02-23T04:44:56.315Z,93352.45
2018-02-23T04:47:22.914Z,93347.99
2018-02-23T04:49:50.515Z,93351.42
2018-02-23T04:52:17.106Z,93355.17
2018-02-23T04:54:43.638Z,93350.35
2018-02-23T04:57:10.257Z,93341.13
2018-02-23T04:59:36.821Z,93349.69
2018-02-23T05:02:04.193Z,93357.52
2018-02-23T05:04:30.795Z,93356.84
2018-02-23T05:06:57.401Z,93351.13
2018-02-23T05:09:24.100Z,93359.77
2018-02-23T05:11:50.693Z,93358.62
2018-02-23T05:14:17.307Z,93358.77
2018-02-23T05:16:43.946Z,93363.91
2018-02-23T05:19:10.550Z,93356.36
2018-02-23T05:21:37.149Z,93356.88
2018-02-23T05:24:03.793Z,93357.56
2018-02-23T05:26:30.387Z,93365.91
2018-02-23T05:28:57.009Z,93361.05
2018-02-23T05:31:23.591Z,93357.81
2018-02-23T05:33:50.183Z,93364.06
2018-02-23T05:36:17.192Z,93367.50
2018-02-23T05:38:44.469Z,93364.48
2018-02-23T05:41:11.034Z,93365.47
2018-02-23T05:43:37.596Z,93351.15
2018-02-23T05:46:04.893Z,93355.87
2018-02-23T05:48:31.458Z,93350.39
2018-02-23T05:50:58.043Z,93344.88
2018-02-23T05:53:24.577Z,93351.55
2018-02-23T05:55:51.947Z,93341.31
2018-02-23T05:58:19.250Z,93340.50
2018-02-23T06:00:46.635Z,93339.75
2018-02-23T06:03:13.265Z,93345.94
2018-02-23T06:05:39.860Z,93352.31
2018-02-23T06:08:06.453Z,93356.05
2018-02-23T06:10:33.739Z,93357.34
2018-02-23T06:13:00.370Z,93361.87
2018-02-23T06:15:32.968Z,93361.33
2018-02-23T06:18:05.914Z,93369.35
2018-02-23T06:20:32.542Z,93368.83
2018-02-23T06:22:59.147Z,93366.44
2018-02-23T06:25:25.723Z,93370.30
2018-02-23T06:27:52.302Z,93372.40
2018-02-23T06:30:18.877Z,93382.59
2018-02-23T06:32:45.445Z,93373.44
2018-02-23T06:35:12.766Z,93366.11
2018-02-23T06:37:39.324Z,93375.32
2018-02-23T06:40:06.677Z,93370.52
2018-02-23T06:42:33.272Z,93373.08
2018-02-23T06:44:59.826Z,93369.79
2018-02-23T06:47:26.414Z,93374.31
2018-02-23T06:49:52.975Z,93383.17
2018-02-23T06:52:19.570Z,93377.68
2018-02-23T06:54:46.155Z,93382.23
2018-02-23T06:57:12.686Z,93381.98
2018-02-23T06:59:39.242Z,93390.73
2018-02-23T07:02:05.813Z,93392.28
2018-02-23T07:04:32.424Z,93386.09
2018-02-23T07:06:59.032Z,93390.75
2018-02-23T07:09:25.609Z,93381.08
2018-02-23T07:11:52.163Z,93384.67
2018-02-23T07:14:18.802Z,93390.75
2018-02-23T07:16:45.417Z,93386.72
2018-02-23T07:19:12.780Z,93384.91
2018-02-23T07:21:39.408Z,93394.64
2018-02-23T07:24:05.998Z,93383.73
2018-02-23T07:26:32.574Z,93386.28
2018-02-23T07:28:59.132Z,93380.90
2018-02-23T07:31:26.435Z,93383.47
2018-02-23T07:33:53.027Z,93383.63
2018-02-23T07:36:19.997Z,93395.21
2018-02-23T07:38:46.557Z,93391.55
2018-02-23T07:41:13.122Z,93387.05
2018-02-23T07:43:40.446Z,93395.45
2018-02-23T07:46:07.041Z,93390.29
2018-02-23T07:48:33.651Z,93398.34
2018-02-23T07:51:01.008Z,93393.94
2018-02-23T07:53:28.433Z,93398.08
2018-02-23T07:55:55.021Z,93396.69
2018-02-23T07:58:21.752Z,93403.14
2018-02-23T08:00:48.354Z,93408.55
2018-02-23T08:03:15.970Z,93399.64
2018-02-23T08:05:42.604Z,93395.84
2018-02-23T08:08:09.222Z,93402.61
2018-02-23T08:10:36.681Z,93396.54
2018-02-23T08:13:03.270Z,93392.36
2018-02-23T08:15:30.667Z,93400.36
2018-02-23T08:17:57.239Z,93409.18
2018-02-23T08:20:24.282Z,93414.34
2018-02-23T08:22:50.883Z,93415.81
2018-02-23T08:25:17.481Z,93421.17
2018-02-23T08:27:44.091Z,93422.98
2018-02-23T08:30:10.782Z,93421.89
2018-02-23T08:32:38.111Z,93427.42
2018-02-23T08:35:04.683Z,93425.33
2018-02-23T08:37:31.571Z,93426.88
2018-02-23T08:39:58.125Z,93425.48
2018-02-23T08:42:24.718Z,93432.55
2018-02-23T08:44:52.133Z,93419.84
2018-02-23T08:47:18.717Z,93421.36
2018-02-23T08:49:45.286Z,93417.72
2018-02-23T08:52:11.894Z,93420.12
2018-02-23T08:54:38.505Z,93422.91
2018-02-23T08:57:05.832Z,93420.53
2018-02-23T08:59:32.729Z,93428.55
2018-02-23T09:01:59.359Z,93432.23
2018-02-23T09:04:25.975Z,93424.80
2018-02-23T09:06:53.443Z,93432.53
2018-02-23T09:09:20.019Z,93428.39
2018-02-23T09:11:46.590Z,93433.52
2018-02-23T09:14:13.194Z,93435.25
2018-02-23T09:16:39.771Z,93427.92
2018-02-23T09:19:06.360Z,93425.46
2018-02-23T09:21:33.834Z,93430.42
2018-02-23T09:24:01.149Z,93421.80
2018-02-23T09:26:27.955Z,93433.95
2018-02-23T09:28:54.535Z,93441.98
2018-02-23T09:31:21.106Z,93436.43
2018-02-23T09:34:06.042Z,93447.59
2018-02-23T09:36:33.337Z,93434.94
2018-02-23T09:39:00.679Z,93441.97
2018-02-23T09:41:28.048Z,93438.71
2018-02-23T09:43:54.652Z,93439.06
2018-02-23T09:46:21.382Z,93442.16
2018-02-23T09:48:47.992Z,93446.41
2018-02-23T09:51:14.586Z,93447.55
2018-02-23T09:53:41.935Z,93445.59
2018-02-23T09:56:09.275Z,93447.26
2018-02-23T09:58:35.837Z,93441.50
2018-02-23T10:01:02.511Z,93447.66
2018-02-23T10:03:29.088Z,93443.47
2018-02-23T10:05:56.238Z,93445.05
2018-02-23T10:08:22.912Z,93449.04
2018-02-23T10:10:50.329Z,93449.13
2018-02-23T10:13:16.927Z,93454.47
2018-02-23T10:15:44.250Z,93446.92
2018-02-23T10:18:10.855Z,93445.91
2018-02-23T10:20:37.407Z,93449.86
2018-02-23T10:23:04.004Z,93448.52
2018-02-23T10:25:30.575Z,93449.75
2018-02-23T10:27:57.180Z,93452.65
2018-02-23T10:30:23.754Z,93448.80
2018-02-23T10:32:51.143Z,93443.34
2018-02-23T10:35:17.726Z,93446.02
2018-02-23T10:37:44.295Z,93446.33
2018-02-23T10:40:10.932Z,93433.41
2018-02-23T10:42:38.310Z,93449.94
2018-02-23T10:45:04.951Z,93447.22
2018-02-23T10:47:31.525Z,93444.88
2018-02-23T10:49:58.122Z,93453.73
2018-02-23T10:52:24.759Z,93439.77
2018-02-23T10:54:52.143Z,93441.53
2018-02-23T10:57:18.748Z,93430.94
2018-02-23T10:59:45.386Z,93442.69
2018-02-23T11:02:12.780Z,93433.69
2018-02-23T11:04:39.402Z,93438.66
2018-02-23T11:07:06.012Z,93430.56
2018-02-23T11:09:32.673Z,93430.56
2018-02-23T11:11:59.287Z,93436.75
2018-02-23T11:14:25.878Z,93437.16
2018-02-23T11:16:52.491Z,93438.17
2018-02-23T11:19:19.135Z,93433.28
2018-02-23T11:21:45.728Z,93447.70
2018-02-23T11:24:13.046Z,93437.96
2018-02-23T11:26:39.978Z,93443.31
2018-02-23T11:29:06.577Z,93439.55
2018-02-23T11:31:33.951Z,93432.97
2018-02-23T11:34:00.545Z,93438.82
2018-02-23T11:36:27.107Z,93435.29
2018-02-23T11:38:54.407Z,93440.38
2018-02-23T11:41:20.996Z,93437.03
2018-02-23T11:43:48.362Z,93443.75
2018-02-23T11:46:15.703Z,93444.99
2018-02-23T11:48:43.049Z,93434.06
2018-02-23T11:51:10.382Z,93439.23
2018-02-23T11:53:36.947Z,93431.20
2018-02-23T11:56:04.260Z,93427.81
2018-02-23T11:58:31.722Z,93430.68
2018-02-23T12:00:58.322Z,93426.81
2018-02-23T12:03:24.960Z,93410.58
2018-02-23T12:05:51.531Z,93419.48
2018-02-23T12:08:18.402Z,93401.09
2018-02-23T12:10:45.716Z,93408.82
2018-02-23T12:13:13.063Z,93413.18
2018-02-23T12:15:39.646Z,93424.84
2018-02-23T12:18:07.225Z,93424.69
2018-02-23T12:20:33.847Z,93434.19
2018-02-23T12:23:01.150Z,93419.92
2018-02-23T12:25:27.780Z,93433.78
2018-02-23T12:27:54.373Z,93429.08
2018-02-23T12:30:22.634Z,93425.81
2018-02-23T12:32:50.274Z,93449.81
2018-02-23T12:35:16.895Z,93454.45
2018-02-23T12:37:43.451Z,93460.11
2018-02-23T12:40:10.050Z,93476.23
2018-02-23T12:42:36.667Z,93448.23
2018-02-23T12:45:04.073Z,93443.57
2018-02-23T12:47:30.669Z,93441.69
2018-02-23T12:49:57.266Z,93450.97
2018-02-23T12:52:23.859Z,93449.63
2018-02-23T12:54:50.449Z,93452.34
2018-02-23T12:57:17.040Z,93458.59
2018-02-23T12:59:43.921Z,93455.37
2018-02-23T13:02:10.480Z,93449.94
2018-02-23T13:04:38.639Z,93461.23
2018-02-23T13:07:05.988Z,93459.21
2018-02-23T13:09:32.598Z,93467.52
2018-02-23T13:11:59.626Z,93456.38
2018-02-23T13:14:32.174Z,93453.09
2018-02-23T13:16:58.892Z,93463.86
2018-02-23T13:19:26.274Z,93443.28
2018-02-23T13:21:53.250Z,93458.33
2018-02-23T13:24:20.647Z,93448.48
2018-02-23T13:26:48.052Z,93446.02
2018-02-23T13:29:14.747Z,93437.19
2018-02-23T13:31:41.366Z,93444.47
2018-02-23T13:34:08.753Z,93457.14
2018-02-23T13:36:35.342Z,93445.36
2018-02-23T13:39:02.029Z,93446.95
2018-02-23T13:41:35.155Z,93456.92
2018-02-23T13:44:01.794Z,93455.33
2018-02-23T13:46:28.442Z,93445.25
2018-02-23T13:48:55.970Z,93452.02
2018-02-23T13:51:22.564Z,93448.86
2018-02-23T13:53:49.583Z,93449.75
2018-02-23T13:56:16.199Z,93452.09
2018-02-23T13:58:42.766Z,93443.06
2018-02-23T14:01:10.107Z,93453.20
2018-02-23T14:03:36.781Z,93446.48
2018-02-23T14:06:03.442Z,93458.34
2018-02-23T14:08:30.023Z,93453.77
2018-02-23T14:10:56.652Z,93454.55
2018-02-23T14:13:23.273Z,93439.37
2018-02-23T14:15:50.122Z,93442.05
2018-02-23T14:18:16.730Z,93433.67
2018-02-23T14:20:43.307Z,93438.70
2018-02-23T14:23:10.279Z,93442.24
2018-02-23T14:25:36.899Z,93429.75
2018-02-23T14:28:03.544Z,93426.89
2018-02-23T14:30:30.151Z,93432.48
2018-02-23T14:32:57.026Z,93431.36
2018-02-23T14:35:23.642Z,93437.77
2018-02-23T14:37:50.390Z,93433.80
2018-02-23T14:40:17.043Z,93424.54
2018-02-23T14:42:43.965Z,93429.77
2018-02-23T14:45:10.592Z,93430.75
2018-02-23T14:47:37.177Z,93435.68
2018-02-23T14:50:22.192Z,93423.83
2018-02-23T14:52:48.710Z,93427.51
2018-02-23T14:55:15.319Z,93422.23
2018-02-23T14:57:41.987Z,93428.73
2018-02-23T15:00:08.569Z,93435.84
2018-02-23T15:02:36.212Z,93441.45
2018-02-23T15:05:02.877Z,93454.47
2018-02-23T15:07:30.301Z,93439.50
2018-02-23T15:09:56.919Z,93437.98
2018-02-23T15:12:23.512Z,93440.27
2018-02-23T15:14:50.093Z,93441.13
2018-02-23T15:17:17.064Z,93443.81
2018-02-23T15:19:43.642Z,93435.33
2018-02-23T15:22:10.225Z,93429.93
2018-02-23T15:24:36.848Z,93423.92
2018-02-23T15:27:03.519Z,93429.81
2018-02-23T15:29:30.128Z,93434.42
2018-02-23T15:32:15.084Z,93438.25
2018-02-23T15:34:41.918Z,93441.39
2018-02-23T15:37:08.564Z,93432.94
2018-02-23T15:39:35.169Z,93433.31
2018-02-23T15:42:02.524Z,93438.54
2018-02-23T15:44:29.960Z,93428.85
2018-02-23T15:46:56.571Z,93423.73
2018-02-23T16:02:43.196Z,93421.12
2018-02-23T16:05:09.916Z,93435.03
2018-02-23T16:07:36.525Z,93442.75
2018-02-23T16:10:03.191Z,93438.66
2018-02-23T16:12:29.876Z,93445.25
2018-02-23T16:14:56.482Z,93449.72
2018-02-23T16:17:23.114Z,93456.33
2018-02-23T16:19:49.693Z,93447.13
2018-02-23T16:22:17.419Z,93444.32
2018-02-23T16:24:44.799Z,93452.42
2018-02-23T16:27:11.435Z,93448.36
2018-02-23T16:29:38.053Z,93463.21
2018-02-23T16:32:04.916Z,93455.82
2018-02-23T16:34:32.235Z,93459.68
2018-02-23T16:36:58.883Z,93454.30
2018-02-23T16:39:26.264Z,93462.18
2018-02-23T16:41:52.862Z,93470.75
2018-02-23T16:44:19.566Z,93468.45
2018-02-23T16:46:46.222Z,93475.66
2018-02-23T16:49:12.802Z,93466.59
2018-02-23T16:51:40.532Z,93476.80
2018-02-23T16:54:07.133Z,93475.27
2018-02-23T16:56:33.750Z,93485.13
2018-02-23T16:59:00.381Z,93490.91
2018-02-23T17:01:27.799Z,93493.00
2018-02-23T17:03:54.413Z,93486.56
2018-02-23T17:06:21.066Z,93486.90
2018-02-23T17:08:48.386Z,93484.63
2018-02-23T17:11:15.051Z,93488.86
2018-02-23T17:13:42.385Z,93494.73
2018-02-23T17:16:09.045Z,93498.76
2018-02-23T17:18:35.631Z,93505.56
2018-02-23T17:21:02.220Z,93498.27
2018-02-23T17:23:28.860Z,93494.30
2018-02-23T17:25:55.508Z,93493.10
2018-02-23T17:28:22.098Z,93495.67
2018-02-23T17:30:48.716Z,93494.55
2018-02-23T17:33:16.035Z,93489.88
2018-02-23T17:35:42.723Z,93491.95
2018-02-23T17:38:09.271Z,93498.98
2018-02-23T17:40:35.834Z,93495.60
2018-02-23T17:43:02.755Z,93507.80
2018-02-23T17:45:29.371Z,93500.60
2018-02-23T17:47:56.686Z,93497.61
2018-02-23T17:50:23.555Z,93493.02
2018-02-23T17:52:51.061Z,93487.27
2018-02-23T17:55:17.687Z,93487.59
2018-02-23T17:57:44.262Z,93489.14
2018-02-23T18:00:10.916Z,93489.20
2018-02-23T18:02:37.515Z,93486.25
2018-02-23T18:05:04.085Z,93485.06
2018-02-23T18:07:31.419Z,93484.09
2018-02-23T18:09:58.009Z,93494.81
2018-02-23T18:12:26.310Z,93488.39
2018-02-23T18:14:52.899Z,93487.70
2018-02-23T18:17:19.515Z,93497.30
2018-02-23T18:19:46.085Z,93480.14
2018-02-23T18:22:12.655Z,93494.76
2018-02-23T18:24:39.263Z,93493.54
2018-02-23T18:27:06.563Z,93489.59
2018-02-23T18:29:33.155Z,93498.17
2018-02-23T18:31:59.791Z,93494.41
2018-02-23T18:34:26.428Z,93503.92
2018-02-23T18:36:53.112Z,93491.20
2018-02-23T18:39:19.792Z,93487.50
2018-02-23T18:41:47.141Z,93486.02
2018-02-23T18:44:13.783Z,93482.89
2018-02-23T18:46:40.428Z,93485.72
2018-02-23T18:49:07.052Z,93472.99
2018-02-23T18:51:33.684Z,93484.34
2018-02-23T18:54:00.327Z,93474.13
2018-02-23T18:56:26.941Z,93476.28
2018-02-23T18:58:53.563Z,93475.77
2018-02-23T19:01:20.164Z,93476.72
2018-02-23T19:03:46.809Z,93467.45
2018-02-23T19:06:13.451Z,93474.71
2018-02-23T19:08:40.538Z,93484.45
2018-02-23T19:11:07.245Z,93477.03
2018-02-23T19:13:33.846Z,93485.25
2018-02-23T19:16:01.803Z,93490.50
2018-02-23T19:18:28.366Z,93490.65
2018-02-23T19:20:55.000Z,93488.78
2018-02-23T19:23:21.728Z,93479.88
2018-02-23T19:25:49.095Z,93484.98
2018-02-23T19:28:16.511Z,93501.06
2018-02-23T19:30:43.199Z,93496.66
2018-02-23T19:33:10.591Z,93486.18
2018-02-23T19:35:37.272Z,93489.16
2018-02-23T19:38:03.946Z,93494.99
2018-02-23T19:40:30.624Z,93494.70
2018-02-23T19:42:57.230Z,93490.18
2018-02-23T19:45:23.938Z,93497.01
2018-02-23T19:47:51.962Z,93503.40
2018-02-23T19:50:19.347Z,93509.64
2018-02-23T19:52:46.085Z,93509.13
2018-02-23T19:55:12.669Z,93514.84
2018-02-23T19:57:39.843Z,93508.56
2018-02-23T20:00:06.440Z,93511.98
2018-02-23T20:02:33.348Z,93513.32
2018-02-23T20:05:00.720Z,93522.23
2018-02-23T20:07:28.095Z,93514.58
2018-02-23T20:09:54.745Z,93517.15
2018-02-23T20:12:21.382Z,93500.71
2018-02-23T20:14:48.003Z,93503.28
2018-02-23T20:17:15.380Z,93511.36
2018-02-23T20:19:42.000Z,93503.74
2018-02-23T20:22:08.630Z,93500.56
2018-02-23T20:24:35.279Z,93504.33
2018-02-23T20:27:01.922Z,93509.02
2018-02-23T20:29:28.547Z,93512.27
2018-02-23T20:31:55.164Z,93512.09
2018-02-23T20:34:22.632Z,93510.02
2018-02-23T20:36:49.928Z,93511.98
2018-02-23T20:39:16.555Z,93506.72
2018-02-23T20:41:43.175Z,93511.62
2018-02-23T20:44:09.754Z,93510.60
2018-02-23T20:46:36.361Z,93515.13
2018-02-23T20:49:02.948Z,93507.00
2018-02-23T20:51:29.536Z,93502.72
2018-02-23T20:53:56.148Z,93497.28
2018-02-23T20:56:22.833Z,93500.06
2018-02-23T20:58:53.501Z,93493.99
2018-02-23T21:01:24.745Z,93490.92
2018-02-23T21:03:51.348Z,93503.52
2018-02-23T21:06:18.693Z,93498.05
2018-02-23T21:08:45.311Z,93500.37
2018-02-23T21:11:11.970Z,93519.39
2018-02-23T21:13:38.575Z,93511.86
2018-02-23T21:16:05.184Z,93506.89
2018-02-23T21:18:32.535Z,93508.67
2018-02-23T21:20:59.155Z,93502.18
2018-02-23T21:23:25.792Z,93504.52
2018-02-23T21:25:52.846Z,93508.73
2018-02-23T21:28:19.438Z,93499.06
2018-02-23T21:30:46.027Z,93503.33
2018-02-23T21:33:12.627Z,93496.81
2018-02-23T21:35:40.035Z,93486.19
2018-02-23T21:38:06.716Z,93486.56
2018-02-23T21:40:33.297Z,93481.98
2018-02-23T21:43:00.026Z,93482.38
2018-02-23T21:45:26.808Z,93480.88
2018-02-23T21:47:53.367Z,93484.14
2018-02-23T21:50:19.944Z,93494.13
2018-02-23T21:52:46.528Z,93485.47
2018-02-23T21:55:14.011Z,93480.76
2018-02-23T21:57:41.893Z,93479.05
2018-02-23T22:00:08.666Z,93473.44
2018-02-23T22:02:35.315Z,93462.66
2018-02-23T22:05:02.731Z,93465.15
2018-02-23T22:07:29.368Z,93469.82
2018-02-23T22:09:56.752Z,93480.02
2018-02-23T22:12:24.096Z,93478.44
2018-02-23T22:14:50.688Z,93482.05
2018-02-23T22:17:17.323Z,93491.75
2018-02-23T22:19:43.944Z,93493.13
2018-02-23T22:22:10.539Z,93485.36
2018-02-23T22:24:37.161Z,93483.38
2018-02-23T22:27:03.758Z,93486.35
2018-02-23T22:29:30.407Z,93474.47
2018-02-23T22:31:57.047Z,93480.73
2018-02-23T22:34:23.646Z,93466.21
2018-02-23T22:36:51.022Z,93461.16
2018-02-23T22:39:17.643Z,93462.45
2018-02-23T22:41:44.971Z,93455.09
2018-02-23T22:44:12.327Z,93465.78
2018-02-23T22:46:39.672Z,93463.34
2018-02-23T22:49:07.090Z,93460.81
2018-02-23T22:51:33.779Z,93467.23
2018-02-23T22:54:01.111Z,93473.02
2018-02-23T22:56:27.663Z,93469.52
2018-02-23T22:58:54.998Z,93477.53
2018-02-23T23:01:21.574Z,93473.48
2018-02-23T23:03:48.190Z,93482.21
2018-02-23T23:06:14.814Z,93479.53
2018-02-23T23:08:41.422Z,93484.45
2018-02-23T23:11:08.035Z,93488.25
2018-02-23T23:13:34.630Z,93495.00
2018-02-23T23:16:02.007Z,93500.80
2018-02-23T23:18:29.329Z,93499.20
2018-02-23T23:20:56.004Z,93498.06
2018-02-23T23:23:23.362Z,93495.49
2018-02-23T23:25:50.703Z,93496.13
2018-02-23T23:28:17.360Z,93503.26
2018-02-23T23:30:44.035Z,93506.79
2018-02-23T23:33:10.615Z,93502.44
2018-02-23T23:35:37.200Z,93508.45
2018-02-23T23:38:03.779Z,93499.93
2018-02-23T23:40:31.133Z,93502.09
2018-02-23T23:42:57.707Z,93504.22
2018-02-23T23:45:24.292Z,93491.87
2018-02-23T23:47:50.875Z,93503.05
2018-02-23T23:50:18.143Z,93506.53
2018-02-23T23:52:44.743Z,93512.45
2018-02-23T23:55:11.311Z,93520.56
2018-02-23T23:57:37.922Z,93513.50
